createdAt,value
2023-03-26T00:02:56.724Z,2.90
2023-03-26T00:06:07.272Z,3.30
2023-03-26T00:09:10.500Z,3.60
2023-03-26T00:12:15.207Z,3.20
2023-03-26T00:15:17.936Z,3.50
2023-03-26T00:18:20.500Z,3.70
2023-03-26T00:21:24.204Z,3.40
2023-03-26T00:24:25.985Z,3.30
2023-03-26T00:30:29.123Z,3.20
2023-03-26T00:33:31.534Z,3.20
2023-03-26T00:36:33.419Z,3.00
2023-03-26T00:39:35.058Z,3.00
2023-03-26T00:42:38.010Z,3.30
2023-03-26T00:45:39.736Z,3.80
2023-03-26T00:48:45.578Z,3.10
2023-03-26T00:51:47.733Z,3.30
2023-03-26T00:54:51.874Z,3.10
2023-03-26T00:57:53.621Z,3.10
2023-03-26T01:01:01.184Z,3.50
2023-03-26T01:04:21.856Z,3.10
2023-03-26T01:07:27.319Z,3.30
2023-03-26T01:10:29.632Z,3.30
2023-03-26T01:13:34.107Z,3.20
2023-03-26T01:16:52.509Z,3.20
2023-03-26T01:19:58.732Z,3.10
2023-03-26T01:23:02.941Z,3.20
2023-03-26T01:26:12.527Z,3.30
2023-03-26T01:29:34.218Z,3.00
2023-03-26T01:33:09.220Z,2.90
2023-03-26T01:36:29.109Z,3.30
2023-03-26T01:39:57.301Z,3.40
2023-03-26T01:43:31.252Z,3.20
2023-03-26T01:46:34.408Z,3.30
2023-03-26T01:49:36.041Z,3.20
2023-03-26T01:52:38.230Z,3.10
2023-03-26T01:55:54.775Z,3.40
2023-03-26T01:59:15.147Z,3.50
2023-03-26T02:02:24.470Z,3.70
2023-03-26T02:05:34.196Z,3.30
2023-03-26T02:08:39.804Z,3.20
2023-03-26T02:11:41.633Z,3.40
2023-03-26T02:14:43.516Z,3.00
2023-03-26T02:17:45.594Z,3.10
2023-03-26T02:20:47.340Z,2.80
2023-03-26T02:23:51.349Z,2.50
2023-03-26T02:26:53.132Z,2.50
2023-03-26T02:29:54.847Z,2.70
2023-03-26T02:32:56.530Z,2.50
2023-03-26T02:35:58.966Z,2.50
2023-03-26T02:39:01.005Z,2.70
2023-03-26T02:42:02.605Z,2.50
2023-03-26T02:45:05.728Z,2.70
2023-03-26T02:48:07.351Z,2.70
2023-03-26T02:51:09.444Z,2.80
2023-03-26T02:54:20.021Z,2.60
2023-03-26T02:57:22.683Z,2.60
2023-03-26T03:00:24.694Z,2.70
2023-03-26T03:03:27.757Z,2.40
2023-03-26T03:06:29.688Z,2.80
2023-03-26T03:09:31.578Z,2.40
2023-03-26T03:12:33.337Z,3.00
2023-03-26T03:15:35.409Z,2.80
2023-03-26T03:18:39.719Z,3.10
2023-03-26T03:21:42.101Z,2.80
2023-03-26T03:24:43.763Z,2.70
2023-03-26T03:30:47.178Z,2.50
2023-03-26T03:33:48.909Z,2.80
2023-03-26T03:36:51.077Z,2.70
2023-03-26T03:39:53.024Z,2.50
2023-03-26T03:42:54.694Z,2.70
2023-03-26T03:45:56.814Z,2.90
2023-03-26T03:48:58.683Z,2.90
2023-03-26T03:52:00.701Z,2.90
2023-03-26T03:55:02.586Z,2.60
2023-03-26T03:58:04.442Z,2.50
2023-03-26T04:01:06.408Z,2.70
2023-03-26T04:04:08.050Z,2.70
2023-03-26T04:07:10.173Z,2.60
2023-03-26T04:10:15.160Z,2.80
2023-03-26T04:13:17.211Z,3.00
2023-03-26T04:16:18.921Z,3.20
2023-03-26T04:19:20.689Z,2.90
2023-03-26T04:22:22.650Z,3.20
2023-03-26T04:25:24.320Z,3.30
2023-03-26T04:28:32.480Z,3.00
2023-03-26T04:31:34.183Z,3.30
2023-03-26T04:34:35.973Z,3.50
2023-03-26T04:37:40.203Z,3.70
2023-03-26T04:40:43.359Z,3.40
2023-03-26T04:43:45.144Z,3.70
2023-03-26T04:49:48.478Z,3.80
2023-03-26T04:52:50.553Z,3.40
2023-03-26T04:55:59.224Z,3.40
2023-03-26T04:59:01.983Z,3.40
2023-03-26T05:02:05.375Z,3.30
2023-03-26T05:05:07.790Z,3.40
2023-03-26T05:08:09.568Z,3.80
2023-03-26T05:11:11.369Z,3.30
2023-03-26T05:14:13.155Z,3.40
2023-03-26T05:17:15.406Z,3.10
2023-03-26T05:20:25.797Z,3.40
2023-03-26T05:23:27.457Z,2.90
2023-03-26T05:26:29.504Z,3.30
2023-03-26T05:29:31.095Z,3.40
2023-03-26T05:32:33.467Z,3.60
2023-03-26T05:35:35.121Z,3.80
2023-03-26T05:38:36.949Z,3.70
2023-03-26T05:41:38.530Z,3.40
2023-03-26T05:44:40.181Z,4.20
2023-03-26T05:47:41.932Z,3.60
2023-03-26T05:50:43.518Z,3.50
2023-03-26T05:53:45.199Z,3.50
2023-03-26T05:56:46.718Z,3.60
2023-03-26T05:59:59.529Z,3.40
2023-03-26T06:03:05.153Z,3.60
2023-03-26T06:06:16.921Z,3.10
2023-03-26T06:09:21.214Z,3.50
2023-03-26T06:12:23.347Z,3.30
2023-03-26T06:15:25.600Z,3.20
2023-03-26T06:18:37.848Z,3.20
2023-03-26T06:21:53.965Z,3.40
2023-03-26T06:24:55.779Z,3.60
2023-03-26T06:28:11.022Z,3.50
2023-03-26T06:31:13.245Z,3.60
2023-03-26T06:34:24.013Z,3.50
2023-03-26T06:37:25.880Z,3.60
2023-03-26T06:40:27.892Z,3.40
2023-03-26T06:43:29.918Z,3.10
2023-03-26T06:46:33.020Z,3.10
2023-03-26T06:49:34.769Z,3.30
2023-03-26T06:52:36.985Z,3.30
2023-03-26T06:55:38.718Z,2.90
2023-03-26T06:58:40.752Z,3.20
2023-03-26T07:01:42.413Z,3.40
2023-03-26T07:04:44.379Z,3.80
2023-03-26T07:07:47.477Z,3.30
2023-03-26T07:10:52.311Z,3.40
2023-03-26T07:13:56.915Z,3.40
2023-03-26T07:16:59.418Z,3.20
2023-03-26T07:20:03.668Z,3.30
2023-03-26T07:23:10.872Z,3.60
2023-03-26T07:26:48.296Z,3.10
2023-03-26T07:29:59.507Z,3.40
2023-03-26T07:33:07.995Z,3.70
2023-03-26T07:36:18.619Z,3.40
2023-03-26T07:39:42.157Z,3.40
2023-03-26T07:42:53.078Z,3.30
2023-03-26T07:45:55.516Z,3.00
2023-03-26T07:48:58.045Z,3.20
2023-03-26T07:52:00.236Z,3.30
2023-03-26T07:55:02.349Z,3.20
2023-03-26T07:58:30.659Z,3.20
2023-03-26T08:01:39.800Z,3.20
2023-03-26T08:05:05.321Z,3.30
2023-03-26T08:08:23.142Z,2.90
2023-03-26T08:11:54.594Z,3.60
2023-03-26T08:15:29.654Z,3.10
2023-03-26T08:18:57.754Z,3.20
2023-03-26T08:22:05.967Z,3.30
2023-03-26T08:25:22.395Z,3.20
2023-03-26T08:28:35.468Z,3.20
2023-03-26T08:31:39.756Z,3.00
2023-03-26T08:34:41.390Z,3.10
2023-03-26T08:37:43.220Z,3.10
2023-03-26T08:41:06.696Z,3.10
2023-03-26T08:44:46.574Z,2.90
2023-03-26T08:48:00.973Z,3.10
2023-03-26T08:51:25.364Z,2.90
2023-03-26T08:54:41.395Z,2.70
2023-03-26T08:57:49.360Z,2.70
2023-03-26T09:00:54.298Z,3.30
2023-03-26T09:04:10.497Z,3.00
2023-03-26T09:07:30.311Z,2.80
2023-03-26T09:11:05.096Z,2.90
2023-03-26T09:14:36.927Z,3.00
2023-03-26T09:18:12.717Z,2.80
2023-03-26T09:21:24.359Z,2.80
2023-03-26T09:24:48.998Z,3.10
2023-03-26T09:28:09.948Z,2.80
2023-03-26T09:31:23.870Z,2.70
2023-03-26T09:34:55.869Z,2.30
2023-03-26T09:38:11.618Z,2.70
2023-03-26T09:41:42.565Z,2.50
2023-03-26T09:45:00.956Z,2.60
2023-03-26T09:48:15.664Z,2.20
2023-03-26T09:51:54.379Z,2.60
2023-03-26T09:55:04.899Z,2.80
2023-03-26T09:58:31.778Z,2.90
2023-03-26T10:01:57.735Z,2.80
2023-03-26T10:05:08.442Z,2.80
2023-03-26T10:08:34.730Z,2.80
2023-03-26T10:12:01.927Z,2.70
2023-03-26T10:15:47.951Z,2.60
2023-03-26T10:19:13.001Z,2.90
2023-03-26T10:22:26.640Z,2.60
2023-03-26T10:25:50.138Z,3.10
2023-03-26T10:29:10.520Z,2.60
2023-03-26T10:32:33.912Z,2.70
2023-03-26T10:35:48.922Z,2.90
2023-03-26T10:39:01.818Z,3.00
2023-03-26T10:42:06.761Z,3.00
2023-03-26T10:45:12.476Z,3.00
2023-03-26T10:48:19.611Z,2.80
2023-03-26T10:51:41.669Z,2.80
2023-03-26T10:54:52.429Z,3.00
2023-03-26T10:57:59.416Z,3.10
2023-03-26T11:01:06.264Z,3.00
2023-03-26T11:04:14.450Z,3.10
2023-03-26T11:07:27.492Z,3.00
2023-03-26T11:10:40.064Z,2.50
2023-03-26T11:13:57.595Z,2.40
2023-03-26T11:17:39.572Z,2.90
2023-03-26T11:20:48.738Z,3.00
2023-03-26T11:24:09.099Z,2.90
2023-03-26T11:27:26.203Z,2.80
2023-03-26T11:30:43.622Z,2.90
2023-03-26T11:33:48.383Z,3.00
2023-03-26T11:36:53.894Z,2.50
2023-03-26T11:39:57.495Z,2.90
2023-03-26T11:43:03.630Z,2.90
2023-03-26T11:46:08.614Z,2.80
2023-03-26T11:49:12.894Z,2.80
2023-03-26T11:52:15.000Z,2.80
2023-03-26T11:55:16.918Z,2.80
2023-03-26T11:59:08.158Z,2.90
2023-03-26T12:02:09.771Z,2.90
2023-03-26T12:05:11.406Z,2.70
2023-03-26T12:08:22.252Z,2.60
2023-03-26T12:11:29.829Z,2.80
2023-03-26T12:14:34.542Z,2.80
2023-03-26T12:17:38.081Z,3.10
2023-03-26T12:20:40.157Z,2.60
2023-03-26T12:23:54.600Z,2.90
2023-03-26T12:27:00.518Z,2.70
2023-03-26T12:30:26.463Z,2.80
2023-03-26T12:33:30.257Z,3.00
2023-03-26T12:36:34.879Z,2.80
2023-03-26T12:40:09.944Z,2.80
2023-03-26T12:44:53.906Z,2.90
2023-03-26T12:48:00.104Z,3.10
2023-03-26T12:50:12.971Z,3.10
2023-03-26T12:53:59.510Z,2.70
2023-03-26T12:57:20.867Z,3.10
2023-03-26T13:00:35.481Z,3.00
2023-03-26T13:04:19.128Z,3.40
2023-03-26T13:07:39.448Z,3.10
2023-03-26T13:11:05.487Z,2.80
2023-03-26T13:14:19.091Z,3.00
2023-03-26T13:17:40.631Z,3.00
2023-03-26T13:24:24.294Z,3.10
2023-03-26T13:27:35.455Z,3.30
2023-03-26T13:30:43.521Z,3.00
2023-03-26T13:33:50.308Z,3.30
2023-03-26T13:37:11.332Z,2.80
2023-03-26T13:40:31.521Z,3.30
2023-03-26T13:43:58.573Z,3.00
2023-03-26T13:47:05.365Z,2.90
2023-03-26T13:50:29.341Z,3.20
2023-03-26T13:54:01.393Z,3.10
2023-03-26T13:57:23.658Z,3.10
2023-03-26T14:00:38.576Z,3.10
2023-03-26T14:04:01.136Z,3.40
2023-03-26T14:07:08.901Z,3.10
2023-03-26T14:10:15.408Z,3.50
2023-03-26T14:13:33.906Z,3.30
2023-03-26T14:16:39.957Z,3.20
2023-03-26T14:20:10.492Z,3.30
2023-03-26T14:23:48.243Z,3.00
2023-03-26T14:27:14.212Z,3.60
2023-03-26T14:30:40.823Z,3.90
2023-03-26T14:34:30.145Z,3.50
2023-03-26T14:38:06.376Z,3.60
2023-03-26T14:41:33.596Z,3.00
2023-03-26T14:45:13.008Z,3.30
2023-03-26T14:49:09.569Z,2.90
2023-03-26T14:52:42.208Z,3.20
2023-03-26T14:56:21.559Z,3.50
2023-03-26T14:59:56.314Z,4.00
2023-03-26T15:03:13.512Z,3.30
2023-03-26T15:07:09.913Z,3.00
2023-03-26T15:10:16.041Z,3.10
2023-03-26T15:13:36.309Z,2.90
2023-03-26T15:16:45.500Z,2.80
2023-03-26T15:20:24.279Z,3.10
2023-03-26T15:24:12.323Z,3.00
2023-03-26T15:27:49.680Z,3.20
2023-03-26T15:31:06.379Z,3.10
2023-03-26T15:34:30.296Z,3.00
2023-03-26T15:38:02.782Z,3.20
2023-03-26T15:41:21.896Z,3.30
2023-03-26T15:44:32.996Z,3.10
2023-03-26T15:47:52.662Z,3.60
2023-03-26T15:51:06.547Z,3.20
2023-03-26T15:54:22.893Z,3.10
2023-03-26T15:57:34.638Z,3.20
2023-03-26T16:00:47.950Z,3.00
2023-03-26T16:04:17.951Z,3.10
2023-03-26T16:08:07.843Z,3.20
2023-03-26T16:11:10.324Z,3.40
2023-03-26T16:14:40.395Z,3.80
2023-03-26T16:18:10.365Z,2.80
2023-03-26T16:21:32.437Z,2.90
2023-03-26T16:24:38.736Z,3.40
2023-03-26T16:27:44.453Z,3.60
2023-03-26T16:31:36.718Z,3.80
2023-03-26T16:34:45.509Z,3.70
2023-03-26T16:37:49.116Z,4.00
2023-03-26T16:41:14.095Z,4.00
2023-03-26T16:44:37.508Z,4.50
2023-03-26T16:47:54.843Z,4.50
2023-03-26T16:51:05.124Z,4.70
2023-03-26T16:54:17.441Z,4.30
2023-03-26T16:57:27.049Z,4.70
2023-03-26T17:00:36.538Z,4.70
2023-03-26T17:04:00.430Z,5.10
2023-03-26T17:07:11.194Z,5.00
2023-03-26T17:10:22.405Z,5.00
2023-03-26T17:13:28.464Z,5.10
2023-03-26T17:16:46.350Z,6.30
2023-03-26T17:19:59.190Z,6.50
2023-03-26T17:23:26.342Z,9.30
2023-03-26T17:26:59.230Z,8.70
2023-03-26T17:30:38.988Z,8.50
2023-03-26T17:34:01.441Z,8.00
2023-03-26T17:37:11.367Z,6.70
2023-03-26T17:40:55.746Z,7.60
2023-03-26T17:44:37.536Z,8.20
2023-03-26T17:47:42.534Z,13.30
2023-03-26T17:50:51.519Z,34.00
2023-03-26T17:53:54.047Z,10.70
2023-03-26T17:57:04.473Z,9.50
2023-03-26T18:00:26.984Z,9.10
2023-03-26T18:03:48.726Z,16.40
2023-03-26T18:07:29.340Z,10.20
2023-03-26T18:10:44.412Z,7.50
2023-03-26T18:14:33.071Z,8.90
2023-03-26T18:17:46.950Z,7.70
2023-03-26T18:21:23.057Z,7.80
2023-03-26T18:24:39.478Z,5.00
2023-03-26T18:27:47.076Z,5.40
2023-03-26T18:31:15.440Z,7.20
2023-03-26T18:34:18.794Z,6.40
2023-03-26T18:37:41.263Z,6.70
2023-03-26T18:41:26.884Z,7.70
2023-03-26T18:44:32.185Z,8.30
2023-03-26T18:47:57.123Z,7.60
2023-03-26T18:51:06.129Z,10.20
2023-03-26T18:54:09.632Z,10.40
2023-03-26T18:57:16.550Z,10.30
2023-03-26T19:00:39.068Z,7.30
2023-03-26T19:04:05.249Z,5.20
2023-03-26T19:07:10.730Z,4.40
2023-03-26T19:10:35.776Z,5.20
2023-03-26T19:13:39.328Z,5.30
2023-03-26T19:17:22.058Z,8.10
2023-03-26T19:20:38.225Z,12.40
2023-03-26T19:23:41.111Z,7.90
2023-03-26T19:26:44.380Z,12.30
2023-03-26T19:30:06.845Z,16.20
2023-03-26T19:33:16.702Z,18.40
2023-03-26T19:36:27.147Z,21.60
2023-03-26T19:39:43.776Z,22.90
2023-03-26T19:42:45.619Z,22.40
2023-03-26T19:46:17.277Z,18.70
2023-03-26T19:49:54.222Z,20.60
2023-03-26T19:53:16.167Z,20.10
2023-03-26T19:56:39.606Z,18.00
2023-03-26T19:59:41.589Z,20.30
2023-03-26T20:03:05.214Z,17.70
2023-03-26T20:06:11.775Z,14.50
2023-03-26T20:09:17.289Z,23.50
2023-03-26T20:12:22.225Z,21.20
2023-03-26T20:16:06.120Z,20.50
2023-03-26T20:19:16.322Z,16.80
2023-03-26T20:22:21.048Z,16.30
2023-03-26T20:25:33.414Z,15.20
2023-03-26T20:28:42.447Z,15.10
2023-03-26T20:31:50.313Z,19.00
2023-03-26T20:34:52.145Z,15.60
2023-03-26T20:37:54.201Z,16.40
2023-03-26T20:40:56.639Z,18.20
2023-03-26T20:43:59.523Z,17.90
2023-03-26T20:47:01.699Z,16.20
2023-03-26T20:50:03.896Z,17.00
2023-03-26T20:53:05.955Z,19.30
2023-03-26T20:56:16.651Z,18.10
2023-03-26T20:59:21.520Z,19.90
2023-03-26T21:02:23.822Z,17.60
2023-03-26T21:05:26.968Z,20.10
2023-03-26T21:08:29.653Z,21.00
2023-03-26T21:11:53.813Z,17.20
2023-03-26T21:14:56.121Z,14.80
2023-03-26T21:17:58.979Z,15.90
2023-03-26T21:21:22.836Z,17.90
2023-03-26T21:25:01.331Z,15.70
2023-03-26T21:28:39.789Z,14.80
2023-03-26T21:31:44.881Z,14.10
2023-03-26T21:34:55.703Z,14.00
2023-03-26T21:37:59.944Z,14.10
2023-03-26T21:41:02.507Z,14.50
2023-03-26T21:44:04.770Z,12.30
2023-03-26T21:47:08.476Z,12.80
2023-03-26T21:50:14.154Z,11.40
2023-03-26T21:53:16.925Z,13.20
2023-03-26T21:56:45.036Z,17.10
2023-03-26T22:00:08.950Z,15.10
2023-03-26T22:03:35.171Z,12.60
2023-03-26T22:06:49.082Z,12.60
2023-03-26T22:09:54.325Z,16.20
2023-03-26T22:12:56.337Z,22.20
2023-03-26T22:15:58.276Z,27.50
2023-03-26T22:19:00.616Z,28.40
2023-03-26T22:22:22.495Z,21.70
2023-03-26T22:25:24.892Z,15.10
2023-03-26T22:28:26.572Z,13.90
2023-03-26T22:34:30.413Z,15.50
2023-03-26T22:37:33.199Z,16.00
2023-03-26T22:40:34.887Z,19.00
2023-03-26T22:46:38.901Z,16.60
2023-03-26T22:49:40.625Z,16.30
2023-03-26T22:55:43.765Z,18.00
2023-03-26T23:01:48.070Z,15.10
2023-03-26T23:04:49.713Z,15.50
2023-03-26T23:07:54.564Z,16.30
2023-03-26T23:10:56.746Z,15.30
2023-03-26T23:13:58.796Z,13.70
2023-03-26T23:17:00.689Z,12.10
2023-03-26T23:23:05.660Z,10.00
2023-03-26T23:26:07.630Z,11.60
2023-03-26T23:29:11.964Z,11.40
2023-03-26T23:32:24.464Z,13.90
2023-03-26T23:35:26.568Z,12.50
2023-03-26T23:38:28.946Z,14.50
2023-03-26T23:41:48.623Z,15.80
2023-03-26T23:44:50.788Z,17.00
2023-03-26T23:47:52.583Z,18.40
2023-03-26T23:51:03.185Z,20.10
2023-03-26T23:54:06.386Z,22.20
2023-03-26T23:57:11.416Z,21.90
